Terminal Aerodrome Forecast
Issued by NWS Wilmington, OH

Current Version | Previous Version | Graphics & Text | Print | Product List | Glossary On
Versions: 1 2 3 4 5 6 7 8 9 10 11 12 13 14 15 16 17 18
000
FTUS41 KILN 090544
TAFILN
TAF
KILN 090544Z 0906/1006 20008KT P6SM SCT250
     FM091500 21011KT P6SM OVC080
     FM091800 22011KT P6SM VCSH OVC050
     FM092000 23011KT 3SM -SN OVC018
      TEMPO 0920/0922 23012G20KT 2SM -SN
     FM092200 26012G20KT P6SM -SHSN OVC009
     FM100300 28014G27KT P6SM VCSH OVC015=

USA.gov is the U.S. government's official web portal to all federal, state and local government web resources and services.